Time;durP1;ratioP1;P1;durP2;ratioP2;P2;SDS_P1;SDS_P2;PMS_P1;PMS_P2;Temp;Humidity;BMP_temperature;BMP_pressure;BME280_temperature;BME280_humidity;BME280_pressure;Samples;Min_cycle;Max_cycle;Signal;HPM_P1;HPM_P2
2021/08/29 00:01:02;;;;;;;8.10;7.40;;;15.70;99.90;;;;;;5031553;28;20480;-60
2021/08/29 00:03:28;;;;;;;8.87;7.20;;;15.70;99.90;;;;;;5031702;28;20456;-61
2021/08/29 00:05:55;;;;;;;14.27;8.13;;;15.70;99.90;;;;;;5031654;28;20447;-59
2021/08/29 00:08:22;;;;;;;8.03;7.53;;;15.60;99.90;;;;;;5031702;28;20467;-61
2021/08/29 00:10:50;;;;;;;8.63;8.03;;;15.60;99.90;;;;;;5031636;28;20465;-60
2021/08/29 00:13:16;;;;;;;7.50;6.90;;;15.60;99.90;;;;;;5031648;28;20634;-59
2021/08/29 00:15:43;;;;;;;8.00;7.40;;;15.60;99.90;;;;;;5031500;28;20441;-61
2021/08/29 00:18:10;;;;;;;7.90;7.10;;;15.50;99.90;;;;;;5032315;28;20444;-59
2021/08/29 00:20:36;;;;;;;7.53;7.03;;;15.50;99.90;;;;;;5037679;28;20473;-58
2021/08/29 00:23:03;;;;;;;7.73;6.90;;;15.50;99.90;;;;;;5037878;28;20451;-60
2021/08/29 00:25:30;;;;;;;7.77;7.23;;;15.50;99.90;;;;;;5038079;28;20444;-59
2021/08/29 00:27:58;;;;;;;9.50;6.90;;;15.50;99.90;;;;;;5038189;28;20437;-59
2021/08/29 00:30:25;;;;;;;7.43;6.83;;;15.40;99.90;;;;;;5038217;28;20467;-60
2021/08/29 00:32:52;;;;;;;8.20;7.40;;;15.40;99.90;;;;;;5037875;28;20957;-61
2021/08/29 00:35:19;;;;;;;8.30;7.50;;;15.40;99.90;;;;;;5038001;28;20451;-61
2021/08/29 00:37:46;;;;;;;9.50;7.40;;;15.40;99.90;;;;;;5037841;28;20496;-59
2021/08/29 00:40:15;;;;;;;7.97;7.37;;;15.40;99.90;;;;;;5038010;28;20468;-59
2021/08/29 00:42:41;;;;;;;8.30;7.57;;;15.40;99.90;;;;;;5037797;28;20444;-60
2021/08/29 00:45:10;;;;;;;7.80;7.20;;;15.30;99.90;;;;;;5037986;28;20448;-60
2021/08/29 00:47:38;;;;;;;9.30;8.63;;;15.30;99.90;;;;;;5037836;28;20934;-59
2021/08/29 00:50:06;;;;;;;6.90;6.40;;;15.30;99.90;;;;;;5037741;28;20468;-59
2021/08/29 00:52:36;;;;;;;7.33;6.83;;;15.30;99.90;;;;;;5037643;28;20479;-60
2021/08/29 00:55:03;;;;;;;7.40;6.90;;;15.20;99.90;;;;;;5037807;28;20441;-60
2021/08/29 00:57:30;;;;;;;9.13;8.30;;;15.20;99.90;;;;;;5037706;28;20476;-60
2021/08/29 00:59:56;;;;;;;7.83;7.23;;;15.20;99.90;;;;;;5037620;28;20445;-60
2021/08/29 01:02:27;;;;;;;8.33;7.63;;;15.20;99.90;;;;;;5037528;28;20444;-59
2021/08/29 01:05:00;;;;;;;14.10;8.13;;;15.20;99.90;;;;;;5037817;28;20444;-60
2021/08/29 01:07:33;;;;;;;8.80;7.80;;;15.20;99.90;;;;;;5037718;28;20445;-61
2021/08/29 01:10:03;;;;;;;8.57;7.77;;;15.20;99.90;;;;;;5037582;28;20444;-59
2021/08/29 01:12:31;;;;;;;7.53;7.03;;;15.20;99.90;;;;;;5037567;28;20440;-59
2021/08/29 01:15:01;;;;;;;8.10;7.40;;;15.20;99.90;;;;;;5037694;28;20436;-61
2021/08/29 01:17:33;;;;;;;9.53;6.80;;;15.10;99.90;;;;;;5037633;28;20480;-59
2021/08/29 01:20:08;;;;;;;10.40;7.30;;;15.10;99.90;;;;;;5037624;28;20448;-61
2021/08/29 01:22:35;;;;;;;12.80;8.47;;;15.10;99.90;;;;;;5037448;28;20446;-60
2021/08/29 01:25:03;;;;;;;8.10;7.50;;;15.10;99.90;;;;;;5037702;28;20906;-60
2021/08/29 01:27:40;;;;;;;9.63;8.50;;;15.10;99.90;;;;;;5037619;28;20806;-60
2021/08/29 01:30:11;;;;;;;12.10;7.87;;;15.10;99.90;;;;;;5036661;28;20464;-59
2021/08/29 01:32:38;;;;;;;9.67;7.50;;;15.10;99.90;;;;;;5034280;28;20444;-61
2021/08/29 01:35:06;;;;;;;8.33;7.63;;;15.00;99.90;;;;;;5034410;28;20453;-61
2021/08/29 01:37:34;;;;;;;8.43;7.60;;;15.00;99.90;;;;;;5034251;28;20481;-59
2021/08/29 01:40:02;;;;;;;9.70;7.40;;;15.00;99.90;;;;;;5034370;28;20472;-60
2021/08/29 01:42:30;;;;;;;7.33;6.40;;;15.00;99.90;;;;;;5034252;28;20452;-60
2021/08/29 01:44:57;;;;;;;7.10;6.30;;;15.00;99.90;;;;;;5034238;28;20447;-60
2021/08/29 01:47:25;;;;;;;10.23;7.00;;;15.00;99.90;;;;;;5034119;28;20445;-61
2021/08/29 01:49:53;;;;;;;9.67;7.20;;;15.00;99.90;;;;;;5034117;28;20857;-61
2021/08/29 01:52:19;;;;;;;7.87;7.17;;;15.00;99.90;;;;;;5033903;28;20444;-59
2021/08/29 01:54:46;;;;;;;8.83;7.27;;;15.00;99.90;;;;;;5034151;28;20456;-60
2021/08/29 01:57:13;;;;;;;10.20;7.27;;;14.90;99.90;;;;;;5033983;28;20485;-59
2021/08/29 01:59:40;;;;;;;8.07;7.10;;;15.00;99.90;;;;;;5033985;28;20506;-59
2021/08/29 02:02:07;;;;;;;10.30;7.77;;;14.90;99.90;;;;;;5033643;28;20471;-59
2021/08/29 02:04:36;;;;;;;8.47;7.67;;;14.90;99.90;;;;;;5033841;28;20457;-60
2021/08/29 02:07:18;;;;;;;7.47;6.77;;;14.90;99.90;;;;;;5033863;28;20446;-61
2021/08/29 02:09:48;;;;;;;9.67;8.00;;;14.90;99.90;;;;;;5033644;28;20448;-60
2021/08/29 02:12:16;;;;;;;9.27;7.67;;;15.00;99.90;;;;;;5033513;28;20457;-61
2021/08/29 02:14:49;;;;;;;9.20;8.00;;;14.90;99.90;;;;;;5033639;28;21446;-60
2021/08/29 02:17:16;;;;;;;8.70;6.63;;;15.00;99.90;;;;;;5033889;28;20488;-60
2021/08/29 02:19:46;;;;;;;8.93;7.13;;;15.00;99.90;;;;;;5033329;28;20453;-59
2021/08/29 02:22:13;;;;;;;7.70;7.00;;;15.00;99.90;;;;;;5033291;28;20444;-60
2021/08/29 02:24:40;;;;;;;10.23;7.10;;;14.90;99.90;;;;;;5033381;28;20954;-60
2021/08/29 02:27:09;;;;;;;10.60;9.50;;;14.90;99.90;;;;;;5033475;28;20441;-60
2021/08/29 02:29:35;;;;;;;9.27;8.17;;;15.00;99.90;;;;;;5033398;28;20441;-59
2021/08/29 02:32:03;;;;;;;8.20;6.40;;;15.00;99.90;;;;;;5033216;28;20839;-60
2021/08/29 02:34:30;;;;;;;7.57;6.80;;;15.00;99.90;;;;;;5033285;28;20444;-60
2021/08/29 02:36:59;;;;;;;7.50;6.80;;;14.90;99.90;;;;;;5033086;28;20842;-60
2021/08/29 02:39:29;;;;;;;8.20;7.47;;;15.00;99.90;;;;;;5033193;28;20445;-60
2021/08/29 02:41:57;;;;;;;7.90;7.30;;;14.90;99.90;;;;;;5032591;28;20472;-60
2021/08/29 02:44:25;;;;;;;10.20;7.10;;;14.90;99.90;;;;;;5032996;28;20480;-60
2021/08/29 02:46:52;;;;;;;8.57;6.63;;;14.90;99.90;;;;;;5032976;28;20942;-60
2021/08/29 02:49:21;;;;;;;7.00;6.43;;;15.00;99.90;;;;;;5033140;28;20448;-60
2021/08/29 02:51:50;;;;;;;6.73;6.03;;;15.00;99.90;;;;;;5032625;28;20523;-60
2021/08/29 02:54:19;;;;;;;7.33;6.63;;;15.00;99.90;;;;;;5032938;28;20441;-60
2021/08/29 02:56:48;;;;;;;7.60;6.90;;;15.00;99.90;;;;;;5032801;28;20982;-59
2021/08/29 02:59:15;;;;;;;10.00;6.50;;;15.00;99.90;;;;;;5032812;28;20441;-60
2021/08/29 03:01:43;;;;;;;10.00;7.40;;;15.00;99.90;;;;;;5032569;28;20461;-59
2021/08/29 03:04:10;;;;;;;6.60;5.90;;;15.00;99.90;;;;;;5032723;28;20452;-59
2021/08/29 03:06:37;;;;;;;9.73;7.03;;;15.00;99.90;;;;;;5032613;28;20448;-60
2021/08/29 03:09:05;;;;;;;7.03;5.70;;;15.00;99.90;;;;;;5032771;28;20511;-59
2021/08/29 03:11:34;;;;;;;6.43;5.90;;;15.00;99.90;;;;;;5032418;28;20469;-59
2021/08/29 03:14:01;;;;;;;6.77;6.20;;;15.00;99.90;;;;;;5032428;28;20441;-60
2021/08/29 03:16:30;;;;;;;6.53;5.90;;;15.00;99.90;;;;;;5032445;28;21005;-59
2021/08/29 03:18:59;;;;;;;9.10;6.70;;;15.00;99.90;;;;;;5032477;28;20527;-60
2021/08/29 03:21:26;;;;;;;6.87;6.20;;;15.00;99.90;;;;;;5031926;28;21012;-59
2021/08/29 03:23:53;;;;;;;10.73;7.47;;;15.00;99.90;;;;;;5032259;28;20945;-60
2021/08/29 03:26:20;;;;;;;8.40;7.57;;;15.00;99.90;;;;;;5032262;28;20445;-59
2021/08/29 03:28:49;;;;;;;6.53;6.03;;;15.00;99.90;;;;;;5032251;28;20473;-60
2021/08/29 03:31:15;;;;;;;7.17;6.20;;;15.00;99.90;;;;;;5032069;28;20901;-60
2021/08/29 03:33:46;;;;;;;6.70;6.00;;;15.00;99.90;;;;;;5032115;28;20447;-60
2021/08/29 03:36:18;;;;;;;9.83;7.03;;;15.00;99.90;;;;;;5032240;28;20445;-59
2021/08/29 03:38:45;;;;;;;11.17;5.70;;;15.00;99.90;;;;;;5032086;28;20504;-59
2021/08/29 03:41:14;;;;;;;8.07;6.90;;;15.00;99.90;;;;;;5031829;28;20461;-59
2021/08/29 03:43:41;;;;;;;6.07;5.57;;;15.00;99.90;;;;;;5032037;28;20468;-59
2021/08/29 03:46:09;;;;;;;7.93;7.07;;;14.90;99.90;;;;;;5031984;28;20811;-60
2021/08/29 03:48:37;;;;;;;12.23;6.20;;;14.80;99.90;;;;;;5031901;28;20954;-59
2021/08/29 03:51:04;;;;;;;7.70;6.47;;;14.80;99.90;;;;;;5031566;28;20469;-60
2021/08/29 03:53:31;;;;;;;7.13;6.40;;;14.70;99.90;;;;;;5031098;28;20441;-60
2021/08/29 03:55:58;;;;;;;9.60;7.00;;;14.70;99.90;;;;;;5031874;28;20485;-60
2021/08/29 03:58:25;;;;;;;9.03;6.50;;;14.70;99.90;;;;;;5031741;28;20481;-59
2021/08/29 04:00:52;;;;;;;11.80;7.13;;;14.70;99.90;;;;;;5031697;28;20472;-59
2021/08/29 04:03:23;;;;;;;8.43;6.43;;;14.60;99.90;;;;;;5031545;28;20449;-60
2021/08/29 04:05:51;;;;;;;7.83;7.13;;;14.70;99.90;;;;;;5031844;28;20446;-59
2021/08/29 04:08:20;;;;;;;14.87;6.67;;;14.60;99.90;;;;;;5031572;28;21011;-59
2021/08/29 04:10:48;;;;;;;8.03;6.13;;;14.70;99.90;;;;;;5031642;28;20487;-60
2021/08/29 04:13:15;;;;;;;8.63;6.50;;;14.70;99.90;;;;;;5031632;28;20445;-60
2021/08/29 04:15:43;;;;;;;10.17;6.90;;;14.70;99.90;;;;;;5031666;28;20445;-59
2021/08/29 04:18:10;;;;;;;9.20;6.80;;;14.70;99.90;;;;;;5031533;28;20481;-61
2021/08/29 04:20:39;;;;;;;9.80;6.00;;;14.70;99.90;;;;;;5031305;28;20473;-60
2021/08/29 04:23:06;;;;;;;10.73;8.40;;;14.70;99.90;;;;;;5031478;28;20452;-60
2021/08/29 04:25:34;;;;;;;11.23;7.67;;;14.70;99.90;;;;;;5031518;28;20452;-60
2021/08/29 04:28:01;;;;;;;16.20;7.17;;;14.70;99.90;;;;;;5031442;28;20452;-59
2021/08/29 04:30:28;;;;;;;13.83;7.10;;;14.70;99.90;;;;;;5031443;28;20468;-59
2021/08/29 04:32:55;;;;;;;11.50;7.00;;;14.70;99.90;;;;;;5031265;28;20441;-58
2021/08/29 04:35:21;;;;;;;12.10;7.67;;;14.70;99.90;;;;;;5031365;28;20817;-60
2021/08/29 04:37:50;;;;;;;6.87;6.17;;;14.70;99.90;;;;;;5031437;28;20481;-60
2021/08/29 04:40:17;;;;;;;7.90;6.10;;;14.70;99.90;;;;;;5031390;28;20469;-60
2021/08/29 04:42:44;;;;;;;11.13;7.03;;;14.70;99.90;;;;;;5031201;28;20449;-60
2021/08/29 04:45:12;;;;;;;11.40;8.40;;;14.80;99.90;;;;;;5031431;28;20464;-60
2021/08/29 04:47:38;;;;;;;11.07;6.77;;;14.80;99.90;;;;;;5031376;28;20445;-60
2021/08/29 04:50:06;;;;;;;8.20;7.17;;;14.80;99.90;;;;;;5031241;28;20472;-59
2021/08/29 04:52:32;;;;;;;10.43;6.47;;;14.80;99.90;;;;;;5031147;28;20457;-59
2021/08/29 04:55:00;;;;;;;14.23;6.87;;;14.90;99.90;;;;;;5031382;28;20448;-60
2021/08/29 04:57:27;;;;;;;11.10;6.77;;;14.90;99.90;;;;;;5031406;28;20530;-60
2021/08/29 04:59:54;;;;;;;7.00;6.27;;;14.90;99.90;;;;;;5031323;28;20452;-59
2021/08/29 05:02:20;;;;;;;8.67;6.30;;;14.90;99.90;;;;;;5031083;28;20449;-61
2021/08/29 05:04:47;;;;;;;7.20;5.97;;;14.90;99.90;;;;;;5031920;28;20445;-60
2021/08/29 05:07:14;;;;;;;6.67;6.00;;;15.00;99.90;;;;;;5035040;28;20441;-60
2021/08/29 05:09:40;;;;;;;7.70;5.87;;;15.00;99.90;;;;;;5034963;28;20445;-60
2021/08/29 05:12:09;;;;;;;12.80;7.40;;;15.00;99.90;;;;;;5034577;28;20875;-60
2021/08/29 05:14:35;;;;;;;9.67;6.77;;;15.00;99.90;;;;;;5034684;28;20452;-60
2021/08/29 05:17:02;;;;;;;8.60;6.60;;;15.10;99.90;;;;;;5034589;28;20802;-60
2021/08/29 05:19:29;;;;;;;13.53;7.50;;;15.10;99.90;;;;;;5034601;28;20481;-60
2021/08/29 05:21:55;;;;;;;11.77;6.87;;;15.10;99.90;;;;;;5050159;23;20500;-65
2021/08/29 05:24:22;;;;;;;7.50;6.47;;;15.20;99.90;;;;;;5029609;28;20441;-66
2021/08/29 05:26:49;;;;;;;13.03;6.40;;;15.20;99.90;;;;;;5034685;28;20464;-65
2021/08/29 05:29:17;;;;;;;7.20;5.83;;;15.20;99.90;;;;;;5034612;28;20837;-66
2021/08/29 05:31:43;;;;;;;5.10;4.07;;;15.20;99.90;;;;;;5034269;28;20771;-66
2021/08/29 05:34:10;;;;;;;9.60;6.03;;;15.20;99.90;;;;;;5034420;28;20467;-65
2021/08/29 05:36:37;;;;;;;8.93;6.73;;;15.20;99.90;;;;;;5034475;28;20441;-66
2021/08/29 05:39:04;;;;;;;12.00;6.60;;;15.30;99.90;;;;;;5034217;28;20477;-66
2021/08/29 05:41:30;;;;;;;10.23;6.87;;;15.30;99.90;;;;;;5034101;28;20468;-66
2021/08/29 05:43:57;;;;;;;11.00;6.43;;;15.30;99.90;;;;;;5034396;28;20441;-65
2021/08/29 05:46:25;;;;;;;12.40;6.07;;;15.30;99.90;;;;;;5034292;28;20453;-66
2021/08/29 05:48:53;;;;;;;12.43;6.67;;;15.30;99.90;;;;;;5034113;28;20445;-66
2021/08/29 05:51:20;;;;;;;6.47;5.87;;;15.30;99.90;;;;;;5034004;28;20484;-65
2021/08/29 05:53:47;;;;;;;9.40;6.10;;;15.30;99.90;;;;;;5034133;28;20449;-65
2021/08/29 05:56:14;;;;;;;9.13;6.57;;;15.30;99.90;;;;;;5034123;28;20456;-66
2021/08/29 05:58:40;;;;;;;14.70;7.20;;;15.20;99.90;;;;;;5034042;28;20574;-65
2021/08/29 06:01:11;;;;;;;10.50;6.17;;;15.20;99.90;;;;;;5033690;28;20469;-64
2021/08/29 06:03:39;;;;;;;11.53;7.17;;;15.30;99.90;;;;;;5033852;28;20449;-65
2021/08/29 06:06:05;;;;;;;12.87;7.63;;;15.30;99.90;;;;;;5033787;28;20449;-64
2021/08/29 06:08:32;;;;;;;16.43;7.80;;;15.30;99.90;;;;;;5033832;28;20445;-65
2021/08/29 06:10:59;;;;;;;11.47;6.17;;;15.40;99.90;;;;;;5033609;28;20468;-65
2021/08/29 06:13:26;;;;;;;9.57;7.20;;;15.50;99.90;;;;;;5033687;28;20510;-64
2021/08/29 06:15:53;;;;;;;9.63;7.33;;;15.50;99.90;;;;;;5033556;28;20437;-65
2021/08/29 06:18:20;;;;;;;8.53;6.20;;;15.50;99.90;;;;;;5033015;28;20484;-64
2021/08/29 06:20:48;;;;;;;7.50;6.07;;;15.60;99.90;;;;;;5033435;28;20480;-67
2021/08/29 06:23:15;;;;;;;15.00;6.23;;;15.60;99.90;;;;;;5033283;28;20950;-67
2021/08/29 06:25:41;;;;;;;10.20;5.63;;;15.60;99.90;;;;;;5033589;28;20479;-65
2021/08/29 06:28:08;;;;;;;7.07;6.37;;;15.50;99.90;;;;;;5033503;28;20444;-64
2021/08/29 06:30:35;;;;;;;8.90;6.57;;;15.60;99.90;;;;;;5033316;28;20939;-66
2021/08/29 06:33:01;;;;;;;7.97;6.70;;;15.60;99.90;;;;;;5033205;28;20441;-66
2021/08/29 06:35:28;;;;;;;11.57;5.93;;;15.60;99.90;;;;;;5033319;28;20456;-66
2021/08/29 06:37:56;;;;;;;11.40;7.70;;;15.60;99.90;;;;;;5033459;28;20985;-65
2021/08/29 06:40:23;;;;;;;9.73;7.10;;;15.70;99.90;;;;;;5033285;28;20461;-66
2021/08/29 06:42:50;;;;;;;7.60;6.03;;;15.70;99.90;;;;;;5033022;28;20463;-66
2021/08/29 06:45:16;;;;;;;9.20;6.93;;;15.70;99.90;;;;;;5033119;28;20445;-66
2021/08/29 06:47:43;;;;;;;10.00;6.87;;;15.80;99.90;;;;;;5033092;28;20809;-65
2021/08/29 06:50:11;;;;;;;11.13;7.50;;;15.80;99.90;;;;;;5033018;28;20822;-65
2021/08/29 06:52:37;;;;;;;8.53;6.57;;;16.00;99.90;;;;;;5032847;28;20448;-64
2021/08/29 06:55:07;;;;;;;11.40;6.80;;;16.10;99.90;;;;;;5032933;28;20441;-65
2021/08/29 06:57:33;;;;;;;8.67;7.50;;;16.20;99.90;;;;;;5032922;28;20445;-65
2021/08/29 07:00:00;;;;;;;9.30;8.50;;;16.30;99.90;;;;;;5032639;28;20889;-66
2021/08/29 07:02:28;;;;;;;9.07;8.13;;;16.40;99.90;;;;;;5032548;28;20452;-66
2021/08/29 07:04:55;;;;;;;9.03;8.17;;;16.50;99.90;;;;;;5032737;28;20453;-65
2021/08/29 07:07:22;;;;;;;9.63;8.80;;;16.50;99.90;;;;;;5032680;28;20440;-65
2021/08/29 07:09:48;;;;;;;9.50;8.70;;;16.40;99.90;;;;;;5032658;28;20448;-65
2021/08/29 07:12:16;;;;;;;13.20;8.77;;;16.30;99.90;;;;;;5032292;28;20472;-66
2021/08/29 07:14:43;;;;;;;10.20;9.20;;;16.30;99.90;;;;;;5032499;28;20449;-66
2021/08/29 07:17:10;;;;;;;9.77;9.00;;;16.40;99.90;;;;;;5032529;28;20440;-66
2021/08/29 07:19:37;;;;;;;11.40;10.40;;;16.50;99.90;;;;;;5032254;28;20993;-65
2021/08/29 07:22:04;;;;;;;11.97;10.23;;;16.60;99.90;;;;;;5032155;28;20469;-66
2021/08/29 07:24:30;;;;;;;11.70;9.40;;;16.70;99.90;;;;;;5032422;28;20959;-65
2021/08/29 07:26:57;;;;;;;10.33;9.37;;;16.80;99.90;;;;;;5032447;28;20453;-66
2021/08/29 07:29:25;;;;;;;9.80;9.10;;;16.80;99.90;;;;;;5032140;28;20755;-66
2021/08/29 07:31:52;;;;;;;10.33;9.53;;;16.80;99.90;;;;;;5031940;28;20472;-66
2021/08/29 07:34:18;;;;;;;12.37;10.50;;;16.90;99.90;;;;;;5032260;28;20440;-66
2021/08/29 07:36:45;;;;;;;11.57;10.47;;;17.00;99.90;;;;;;5032155;28;20448;-65
2021/08/29 07:39:12;;;;;;;10.53;9.57;;;17.00;99.90;;;;;;5032241;28;20477;-66
2021/08/29 07:41:38;;;;;;;9.33;8.43;;;16.80;99.90;;;;;;5031807;28;20464;-66
2021/08/29 07:44:06;;;;;;;9.90;9.10;;;16.70;99.90;;;;;;5031991;28;20812;-64
2021/08/29 07:46:34;;;;;;;14.30;9.43;;;16.50;99.90;;;;;;5031977;28;20448;-66
2021/08/29 07:49:01;;;;;;;11.27;4.60;;;16.40;99.90;;;;;;5032021;28;20485;-67
2021/08/29 07:51:27;;;;;;;7.10;5.67;;;16.20;99.90;;;;;;5031718;28;20963;-66
2021/08/29 07:53:54;;;;;;;8.70;5.73;;;16.20;99.90;;;;;;5031912;28;20818;-66
2021/08/29 07:56:21;;;;;;;10.80;5.90;;;16.00;99.90;;;;;;5031790;28;20844;-66
2021/08/29 07:58:47;;;;;;;10.00;5.47;;;16.00;99.90;;;;;;5031745;28;20484;-66
2021/08/29 08:01:14;;;;;;;10.90;4.77;;;16.00;99.90;;;;;;5031519;28;20996;-65
2021/08/29 08:03:42;;;;;;;12.27;5.17;;;16.00;99.90;;;;;;5031712;28;20452;-66
2021/08/29 08:06:09;;;;;;;9.53;7.10;;;16.00;99.90;;;;;;5031711;28;20818;-66
2021/08/29 08:08:36;;;;;;;10.87;5.20;;;15.90;99.90;;;;;;5031658;28;20452;-66
2021/08/29 08:11:02;;;;;;;9.50;5.57;;;15.90;99.90;;;;;;5031279;28;20622;-66
2021/08/29 08:13:30;;;;;;;10.53;5.27;;;15.90;99.90;;;;;;5031504;28;20449;-66
2021/08/29 08:15:57;;;;;;;13.30;5.90;;;15.90;99.90;;;;;;5031587;28;20541;-64
2021/08/29 08:18:23;;;;;;;6.90;5.30;;;16.00;99.90;;;;;;5031491;28;20448;-65
2021/08/29 08:20:51;;;;;;;6.23;5.63;;;16.10;99.90;;;;;;5031345;28;20496;-66
2021/08/29 08:23:18;;;;;;;14.20;5.83;;;16.20;99.90;;;;;;5031386;28;20452;-66
2021/08/29 08:25:45;;;;;;;10.37;5.47;;;16.40;99.90;;;;;;5031413;28;20464;-65
2021/08/29 08:28:12;;;;;;;8.10;5.77;;;16.60;99.90;;;;;;5031507;28;20449;-66
2021/08/29 08:30:39;;;;;;;9.53;5.60;;;16.70;99.90;;;;;;5031374;28;20477;-66
2021/08/29 08:33:05;;;;;;;9.03;5.13;;;16.50;99.90;;;;;;5031322;28;20445;-65
2021/08/29 08:35:32;;;;;;;7.10;4.37;;;16.20;99.90;;;;;;5031403;28;20453;-66
2021/08/29 08:38:00;;;;;;;8.73;5.40;;;16.10;99.90;;;;;;5031516;28;20434;-65
2021/08/29 08:40:30;;;;;;;9.90;6.10;;;16.00;99.90;;;;;;5033091;28;20981;-66
2021/08/29 08:42:57;;;;;;;9.60;5.90;;;15.90;99.90;;;;;;5034996;28;20445;-66
2021/08/29 08:45:23;;;;;;;12.00;6.20;;;15.70;99.90;;;;;;5035315;28;20448;-66
2021/08/29 08:47:50;;;;;;;5.93;5.07;;;15.70;99.90;;;;;;5035383;28;20953;-66
2021/08/29 08:50:17;;;;;;;9.37;5.27;;;15.50;99.90;;;;;;5035293;28;20457;-66
2021/08/29 08:52:44;;;;;;;3.70;3.37;;;15.50;99.90;;;;;;5035091;28;20957;-67
2021/08/29 08:55:13;;;;;;;6.47;4.90;;;15.40;99.90;;;;;;5035152;28;20441;-67
2021/08/29 08:57:40;;;;;;;6.30;3.07;;;15.30;99.90;;;;;;5035207;28;20452;-66
2021/08/29 09:00:07;;;;;;;6.37;3.40;;;15.20;99.90;;;;;;5034903;28;20845;-66
2021/08/29 09:02:34;;;;;;;4.90;4.20;;;15.20;99.90;;;;;;5035025;28;20467;-67
2021/08/29 09:05:01;;;;;;;8.20;4.00;;;15.30;99.90;;;;;;5035071;28;20444;-66
2021/08/29 09:07:29;;;;;;;6.57;3.80;;;15.50;99.90;;;;;;5035003;28;20445;-67
2021/08/29 09:09:56;;;;;;;3.97;3.60;;;15.80;99.90;;;;;;5034856;28;20441;-66
2021/08/29 09:12:24;;;;;;;6.83;4.57;;;16.00;99.90;;;;;;5034639;28;20448;-65
2021/08/29 09:14:53;;;;;;;4.73;4.23;;;16.00;99.90;;;;;;5034773;28;20456;-67
2021/08/29 09:17:29;;;;;;;7.80;3.73;;;16.00;99.90;;;;;;5034644;28;20546;-66
2021/08/29 09:20:14;;;;;;;7.37;5.60;;;16.10;99.90;;;;;;5034573;28;20484;-65
2021/08/29 09:22:41;;;;;;;4.67;4.20;;;16.20;99.90;;;;;;5034547;28;20445;-67
2021/08/29 09:25:12;;;;;;;11.30;4.57;;;16.20;99.90;;;;;;5034492;28;20449;-65
2021/08/29 09:27:42;;;;;;;5.73;4.50;;;16.30;99.90;;;;;;5034588;28;20449;-67
2021/08/29 09:30:10;;;;;;;6.73;4.70;;;16.30;99.90;;;;;;5034390;28;20947;-66
2021/08/29 09:32:50;;;;;;;6.03;5.47;;;16.30;99.90;;;;;;5034170;28;20452;-66
2021/08/29 09:35:17;;;;;;;4.20;3.70;;;16.30;99.90;;;;;;5034373;28;20448;-66
2021/08/29 09:37:44;;;;;;;5.33;4.83;;;16.30;99.90;;;;;;5034323;28;20448;-66
2021/08/29 09:40:21;;;;;;;8.20;5.17;;;16.00;99.90;;;;;;5034160;28;20488;-66
2021/08/29 09:42:50;;;;;;;4.70;4.20;;;16.00;99.90;;;;;;5034012;28;20494;-66
2021/08/29 09:45:37;;;;;;;7.63;5.33;;;16.00;99.90;;;;;;5034242;28;20449;-66
2021/08/29 09:48:05;;;;;;;7.10;4.20;;;16.10;99.90;;;;;;5034055;28;20452;-66
2021/08/29 09:50:34;;;;;;;4.23;3.83;;;15.90;99.90;;;;;;5034181;28;20456;-66
2021/08/29 09:53:06;;;;;;;7.23;4.77;;;15.80;99.90;;;;;;5033013;28;20437;-65
2021/08/29 09:55:35;;;;;;;8.33;4.00;;;15.90;99.90;;;;;;5034685;28;20441;-66
2021/08/29 09:58:20;;;;;;;6.83;4.27;;;16.00;99.90;;;;;;5034259;28;20512;-66
2021/08/29 10:01:07;;;;;;;3.97;3.67;;;16.10;99.90;;;;;;5034058;28;20481;-65
2021/08/29 10:03:34;;;;;;;6.63;4.70;;;16.00;99.90;;;;;;5034005;28;20563;-66
2021/08/29 10:06:14;;;;;;;5.87;3.93;;;16.00;99.90;;;;;;5033862;28;20449;-65
2021/08/29 10:08:44;;;;;;;6.50;4.37;;;16.00;99.90;;;;;;5033852;28;20949;-66
2021/08/29 10:11:13;;;;;;;7.07;4.50;;;16.00;99.90;;;;;;5033442;28;20838;-66
2021/08/29 10:13:42;;;;;;;4.53;4.13;;;16.00;99.90;;;;;;5033611;28;20453;-65
2021/08/29 10:16:09;;;;;;;4.07;3.47;;;16.00;99.90;;;;;;5033700;28;20473;-67
2021/08/29 10:18:37;;;;;;;6.33;4.83;;;15.90;99.90;;;;;;5033702;28;20946;-65
2021/08/29 10:21:05;;;;;;;5.20;3.80;;;16.10;99.90;;;;;;5033084;28;20496;-66
2021/08/29 10:23:32;;;;;;;4.10;3.70;;;16.20;99.90;;;;;;5033493;28;20445;-66
2021/08/29 10:25:59;;;;;;;6.47;5.83;;;16.20;99.90;;;;;;5033364;28;20449;-67
2021/08/29 10:28:28;;;;;;;5.80;4.00;;;16.00;99.90;;;;;;5033501;28;20639;-66
2021/08/29 10:30:59;;;;;;;9.00;4.50;;;16.00;99.90;;;;;;5033245;28;20468;-66
2021/08/29 10:33:27;;;;;;;5.10;4.20;;;15.80;99.90;;;;;;5033163;28;20445;-66
2021/08/29 10:35:54;;;;;;;4.30;2.80;;;15.80;99.90;;;;;;5033360;28;20953;-66
2021/08/29 10:38:22;;;;;;;6.80;4.00;;;15.70;99.90;;;;;;5033391;28;20446;-65
2021/08/29 10:40:49;;;;;;;3.10;1.97;;;15.70;99.90;;;;;;5033036;28;20874;-66
2021/08/29 10:43:16;;;;;;;3.53;2.67;;;15.60;99.90;;;;;;5033031;28;20453;-66
2021/08/29 10:45:43;;;;;;;6.63;2.80;;;15.50;99.90;;;;;;5033218;28;20978;-66
2021/08/29 10:48:15;;;;;;;2.40;2.20;;;15.60;99.90;;;;;;5033417;28;20449;-66
2021/08/29 10:50:47;;;;;;;2.83;2.63;;;15.50;99.90;;;;;;5033632;28;20468;-65
2021/08/29 10:53:30;;;;;;;3.93;3.20;;;15.50;99.90;;;;;;5033362;28;20510;-66
2021/08/29 10:56:35;;;;;;;3.10;2.90;;;15.50;99.90;;;;;;5033203;28;20445;-66
2021/08/29 10:59:22;;;;;;;2.23;2.13;;;15.50;99.90;;;;;;5032790;28;20441;-66
2021/08/29 11:01:50;;;;;;;3.00;2.80;;;15.60;99.90;;;;;;5032686;28;20468;-66
2021/08/29 11:04:46;;;;;;;3.47;3.23;;;15.50;99.90;;;;;;5032419;28;20472;-66
2021/08/29 11:07:13;;;;;;;2.67;2.47;;;15.60;99.90;;;;;;5028062;28;20456;-66
2021/08/29 11:09:46;;;;;;;5.03;3.30;;;15.60;99.90;;;;;;5032714;28;20438;-66
2021/08/29 11:12:33;;;;;;;5.30;4.17;;;15.60;99.90;;;;;;5032725;28;20461;-67
2021/08/29 11:15:02;;;;;;;3.77;3.37;;;15.80;99.90;;;;;;5032757;28;20433;-66
2021/08/29 11:17:30;;;;;;;5.33;4.00;;;15.80;99.90;;;;;;5032582;28;20965;-65
2021/08/29 11:20:11;;;;;;;3.90;3.07;;;15.80;99.90;;;;;;5032319;28;20488;-66
2021/08/29 11:22:39;;;;;;;3.90;3.50;;;15.70;99.90;;;;;;5032830;28;20802;-66
2021/08/29 11:25:13;;;;;;;4.33;3.77;;;15.70;99.90;;;;;;5032445;28;20437;-66
2021/08/29 11:27:48;;;;;;;7.00;4.00;;;15.70;99.90;;;;;;5032276;28;20440;-66
2021/08/29 11:30:16;;;;;;;5.60;5.10;;;15.70;99.90;;;;;;5032261;28;20444;-66
2021/08/29 11:32:46;;;;;;;5.00;4.50;;;15.80;99.90;;;;;;5031957;28;20467;-65
2021/08/29 11:35:16;;;;;;;5.13;4.53;;;16.00;99.90;;;;;;5032117;28;20448;-65
2021/08/29 11:37:43;;;;;;;6.27;4.63;;;16.00;99.90;;;;;;5032167;28;20441;-66
2021/08/29 11:40:12;;;;;;;4.60;4.20;;;16.00;99.90;;;;;;5031926;28;20492;-67
2021/08/29 11:42:40;;;;;;;4.40;3.53;;;16.00;99.90;;;;;;5031773;28;20445;-67
2021/08/29 11:45:12;;;;;;;8.00;3.70;;;16.00;99.90;;;;;;5031977;28;20455;-67
2021/08/29 11:47:40;;;;;;;4.73;3.47;;;16.00;99.90;;;;;;5031891;28;20514;-67
2021/08/29 11:50:09;;;;;;;4.03;3.57;;;15.90;99.90;;;;;;5031832;28;20821;-67
2021/08/29 11:52:39;;;;;;;5.20;4.80;;;15.90;99.90;;;;;;5031676;28;20448;-67
2021/08/29 11:55:08;;;;;;;9.23;4.80;;;15.90;99.90;;;;;;5031835;28;20445;-66
2021/08/29 11:57:47;;;;;;;5.37;4.40;;;15.80;99.90;;;;;;5031860;28;20448;-67
2021/08/29 12:00:15;;;;;;;5.47;4.40;;;15.80;99.90;;;;;;5031743;28;20512;-66
2021/08/29 12:02:43;;;;;;;6.00;4.60;;;15.80;99.90;;;;;;5031543;28;20452;-66
2021/08/29 12:05:12;;;;;;;8.33;4.90;;;15.80;99.90;;;;;;5031643;28;20455;-66
2021/08/29 12:07:46;;;;;;;7.23;5.67;;;15.80;99.90;;;;;;5031701;28;20441;-66
2021/08/29 12:10:16;;;;;;;8.30;5.50;;;15.80;99.90;;;;;;5031665;28;20436;-67
2021/08/29 12:12:46;;;;;;;5.17;4.77;;;15.70;99.90;;;;;;5031535;28;20449;-65
2021/08/29 12:15:15;;;;;;;7.70;5.67;;;15.80;99.90;;;;;;5030929;28;20449;-66
2021/08/29 12:17:44;;;;;;;6.77;6.23;;;15.80;99.90;;;;;;5031712;28;20977;-66
2021/08/29 12:20:12;;;;;;;7.63;4.50;;;15.80;99.90;;;;;;5031445;28;20488;-66
2021/08/29 12:22:40;;;;;;;8.17;5.73;;;15.80;99.90;;;;;;5031608;28;20452;-65
2021/08/29 12:25:08;;;;;;;6.63;5.80;;;15.80;99.90;;;;;;5031614;28;20467;-65
2021/08/29 12:27:35;;;;;;;7.20;5.20;;;15.80;99.90;;;;;;5032069;28;20441;-64
2021/08/29 12:30:05;;;;;;;6.90;5.70;;;15.80;99.90;;;;;;5031764;28;20441;-66
2021/08/29 12:32:34;;;;;;;5.50;4.60;;;15.80;99.90;;;;;;5031757;28;20449;-66
2021/08/29 12:35:02;;;;;;;7.07;4.30;;;15.90;99.90;;;;;;5031748;28;20448;-66
2021/08/29 12:37:31;;;;;;;5.00;4.60;;;15.90;99.90;;;;;;5031643;28;20795;-66
2021/08/29 12:40:01;;;;;;;6.50;5.67;;;15.90;99.90;;;;;;5031464;28;20473;-65
2021/08/29 12:42:29;;;;;;;6.87;5.30;;;16.00;99.90;;;;;;5031385;28;20445;-65
2021/08/29 12:44:58;;;;;;;6.87;5.93;;;15.90;99.90;;;;;;5031375;28;20814;-65
2021/08/29 12:47:26;;;;;;;6.17;5.57;;;15.90;99.90;;;;;;5031310;28;20448;-65
2021/08/29 12:49:54;;;;;;;10.00;5.70;;;16.00;99.90;;;;;;5031303;28;20803;-65